Time;durP1;ratioP1;P1;durP2;ratioP2;P2;SDS_P1;SDS_P2;PMS_P1;PMS_P2;Temp;Humidity;BMP_temperature;BMP_pressure;BME280_temperature;BME280_humidity;BME280_pressure;Samples;Min_cycle;Max_cycle;Signal;HPM_P1;HPM_P2
2022/03/09 00:01:29;;;;;;;6.88;3.50;;;0.10;64.60;;;;;;4956879;28;20053;-80
2022/03/09 00:03:56;;;;;;;5.22;2.83;;;0.10;64.80;;;;;;4956707;29;20027;-82
2022/03/09 00:06:22;;;;;;;5.38;2.58;;;0.10;64.90;;;;;;4954773;29;20033;-79
2022/03/09 00:08:48;;;;;;;5.45;2.78;;;0.10;65.10;;;;;;4960936;29;20087;-81
2022/03/09 00:11:13;;;;;;;4.60;2.55;;;0.10;65.20;;;;;;4986191;28;20067;-81
2022/03/09 00:13:39;;;;;;;5.55;3.55;;;0.10;65.30;;;;;;4993503;28;20042;-81
2022/03/09 00:16:05;;;;;;;6.18;3.83;;;0.10;65.30;;;;;;4991624;28;20083;-82
2022/03/09 00:18:31;;;;;;;6.18;3.13;;;0.10;65.30;;;;;;4992226;28;20099;-81
2022/03/09 00:20:57;;;;;;;4.47;3.08;;;0.10;65.50;;;;;;4991097;28;20026;-81
2022/03/09 00:23:22;;;;;;;4.45;2.92;;;0.00;65.70;;;;;;4973406;28;20027;-81
2022/03/09 00:25:48;;;;;;;5.75;3.33;;;0.00;65.80;;;;;;4975216;28;20031;-81
2022/03/09 00:28:14;;;;;;;6.05;3.35;;;0.00;66.00;;;;;;4973220;28;20031;-82
2022/03/09 00:30:41;;;;;;;5.82;3.20;;;-0.10;66.10;;;;;;4992608;28;20047;-82
2022/03/09 00:33:07;;;;;;;5.40;2.88;;;-0.10;66.30;;;;;;4974347;28;20055;-81
2022/03/09 00:35:32;;;;;;;4.40;2.67;;;-0.10;66.60;;;;;;4992864;28;20100;-80
2022/03/09 00:37:58;;;;;;;6.43;3.20;;;-0.10;67.50;;;;;;4982271;28;20037;-81
2022/03/09 00:40:24;;;;;;;3.97;2.85;;;-0.20;66.90;;;;;;4980560;28;20141;-81
2022/03/09 00:42:50;;;;;;;7.45;3.80;;;-0.20;66.90;;;;;;4966583;28;20038;-82
2022/03/09 00:45:15;;;;;;;7.82;3.70;;;-0.30;66.90;;;;;;4974099;28;20049;-80
2022/03/09 00:47:41;;;;;;;4.65;3.17;;;-0.30;66.80;;;;;;4974309;28;20093;-83
2022/03/09 00:50:07;;;;;;;7.60;3.67;;;-0.30;66.80;;;;;;4976030;28;20065;-81
2022/03/09 00:52:33;;;;;;;5.95;4.15;;;-0.30;66.90;;;;;;4983139;28;20082;-81
2022/03/09 00:54:59;;;;;;;6.25;3.45;;;-0.30;66.90;;;;;;4969184;29;20023;-81
2022/03/09 00:57:24;;;;;;;8.18;3.40;;;-0.30;67.10;;;;;;4967079;29;20093;-80
2022/03/09 00:59:50;;;;;;;4.50;3.00;;;-0.30;67.20;;;;;;4970213;29;20027;-80
2022/03/09 01:02:17;;;;;;;4.78;2.60;;;-0.20;67.20;;;;;;4957347;28;20031;-82
2022/03/09 01:04:43;;;;;;;5.00;3.40;;;-0.20;67.80;;;;;;4972411;28;20053;-80
2022/03/09 01:07:09;;;;;;;4.07;3.08;;;-0.20;67.10;;;;;;4982607;28;20042;-80
2022/03/09 01:09:35;;;;;;;4.85;3.05;;;-0.20;67.10;;;;;;4943033;29;20031;-81
2022/03/09 01:12:01;;;;;;;6.10;3.20;;;-0.30;67.10;;;;;;4962999;29;20499;-78
2022/03/09 01:14:26;;;;;;;5.25;3.17;;;-0.30;67.60;;;;;;4944439;29;20087;-81
2022/03/09 01:16:52;;;;;;;6.13;3.40;;;-0.30;68.40;;;;;;4966131;29;20149;-81
2022/03/09 01:19:18;;;;;;;4.80;2.88;;;-0.30;69.10;;;;;;4981571;28;20038;-80
2022/03/09 01:21:44;;;;;;;6.40;3.22;;;-0.40;69.80;;;;;;4988173;28;20097;-79
2022/03/09 01:24:09;;;;;;;4.82;3.25;;;-0.40;70.30;;;;;;4969756;28;20384;-79
2022/03/09 01:26:35;;;;;;;6.35;3.33;;;-0.40;71.40;;;;;;4986790;28;20027;-82
2022/03/09 01:29:01;;;;;;;6.75;3.85;;;-0.30;71.00;;;;;;4968659;28;20026;-83
2022/03/09 01:31:27;;;;;;;6.47;3.10;;;-0.40;71.10;;;;;;4969050;28;20034;-81
2022/03/09 01:33:52;;;;;;;6.78;3.83;;;-0.40;71.70;;;;;;4969121;28;20038;-79
2022/03/09 01:36:18;;;;;;;5.57;3.53;;;-0.40;71.20;;;;;;4989567;28;20027;-81
2022/03/09 01:38:44;;;;;;;6.60;3.67;;;-0.40;71.50;;;;;;4987420;28;20114;-79
2022/03/09 01:41:11;;;;;;;7.30;3.60;;;-0.40;71.60;;;;;;4967563;28;20453;-78
2022/03/09 01:43:38;;;;;;;8.20;4.20;;;-0.40;71.70;;;;;;4984588;28;20027;-78
2022/03/09 01:46:04;;;;;;;8.07;4.40;;;-0.40;71.60;;;;;;4966737;28;20027;-81
2022/03/09 01:48:29;;;;;;;7.43;3.97;;;-0.30;71.60;;;;;;4981288;28;20073;-79
2022/03/09 01:50:55;;;;;;;9.07;4.47;;;-0.30;71.30;;;;;;4981010;28;20030;-80
2022/03/09 01:53:21;;;;;;;6.93;3.90;;;-0.30;71.10;;;;;;4984024;28;20023;-79
2022/03/09 01:55:47;;;;;;;8.63;4.32;;;-0.30;71.00;;;;;;4991529;28;20030;-79
2022/03/09 01:58:13;;;;;;;5.05;3.65;;;-0.30;71.20;;;;;;4986956;28;20106;-83
2022/03/09 02:00:39;;;;;;;6.72;3.78;;;-0.30;71.20;;;;;;4955492;29;20031;-81
2022/03/09 02:03:05;;;;;;;8.20;3.70;;;-0.30;71.20;;;;;;4958021;28;20015;-83
2022/03/09 02:05:31;;;;;;;6.60;4.05;;;-0.40;71.30;;;;;;4973929;29;20039;-81
2022/03/09 02:10:41;;;;;;;9.18;3.92;;;-0.40;71.50;;;;;;4945712;29;20116;-82
2022/03/09 02:13:08;;;;;;;10.32;4.55;;;-0.40;71.20;;;;;;4948691;29;20108;-80
2022/03/09 02:15:34;;;;;;;6.25;3.75;;;-0.40;71.10;;;;;;4953825;29;20064;-81
2022/03/09 02:18:00;;;;;;;8.32;4.00;;;-0.40;71.10;;;;;;4946579;29;20034;-82
2022/03/09 02:20:27;;;;;;;8.48;4.60;;;-0.40;71.10;;;;;;4968077;28;20031;-81
2022/03/09 02:22:53;;;;;;;7.47;3.92;;;-0.40;71.10;;;;;;4962880;28;20051;-81
2022/03/09 02:25:19;;;;;;;7.22;3.92;;;-0.40;71.40;;;;;;4986323;28;20037;-81
2022/03/09 02:27:46;;;;;;;8.05;4.53;;;-0.40;71.60;;;;;;4968074;28;20058;-80
2022/03/09 02:30:14;;;;;;;5.88;3.58;;;-0.40;71.70;;;;;;4967589;28;20103;-81
2022/03/09 02:32:46;;;;;;;7.45;3.50;;;-0.50;71.80;;;;;;4977390;28;20074;-80
2022/03/09 02:35:13;;;;;;;5.13;3.40;;;-0.50;71.90;;;;;;4995933;28;20030;-80
2022/03/09 02:37:40;;;;;;;5.70;3.47;;;-0.50;72.00;;;;;;4967813;29;20071;-81
2022/03/09 02:40:10;;;;;;;5.15;3.28;;;-0.50;72.10;;;;;;4982398;28;20033;-82
2022/03/09 02:42:37;;;;;;;6.50;3.72;;;-0.50;72.30;;;;;;4990435;28;20046;-80
2022/03/09 02:45:04;;;;;;;5.55;3.15;;;-0.50;72.50;;;;;;4989237;28;20049;-82
2022/03/09 02:47:30;;;;;;;6.80;3.70;;;-0.50;72.60;;;;;;4971776;28;20026;-82
2022/03/09 02:49:56;;;;;;;9.82;4.60;;;-0.50;72.50;;;;;;4957689;29;20112;-80
2022/03/09 02:52:21;;;;;;;7.57;4.07;;;-0.60;72.40;;;;;;4969883;29;20038;-82
2022/03/09 02:54:47;;;;;;;6.53;4.18;;;-0.60;72.40;;;;;;4951296;29;20063;-83
2022/03/09 02:57:13;;;;;;;7.72;3.95;;;-0.60;72.70;;;;;;4969602;29;20122;-82
2022/03/09 02:59:39;;;;;;;8.90;4.50;;;-0.60;73.00;;;;;;4968895;28;20032;-79
2022/03/09 03:02:05;;;;;;;7.72;3.90;;;-0.60;73.30;;;;;;4993639;28;20018;-81
2022/03/09 03:04:31;;;;;;;5.90;3.92;;;-0.60;73.60;;;;;;4990471;28;20031;-80
2022/03/09 03:06:56;;;;;;;7.47;4.13;;;-0.70;73.70;;;;;;4988473;28;20038;-81
2022/03/09 03:09:22;;;;;;;6.72;4.22;;;-0.70;73.90;;;;;;4986916;28;20456;-81
2022/03/09 03:11:48;;;;;;;6.63;3.55;;;-0.70;74.20;;;;;;4967261;29;20114;-78
2022/03/09 03:14:13;;;;;;;6.75;3.83;;;-0.70;74.40;;;;;;4965912;29;20027;-81
2022/03/09 03:16:39;;;;;;;9.00;3.92;;;-0.70;74.60;;;;;;4969289;29;20105;-82
2022/03/09 03:19:11;;;;;;;7.28;3.78;;;-0.80;74.70;;;;;;4950493;29;20449;-81
2022/03/09 03:21:37;;;;;;;5.03;3.53;;;-0.80;74.80;;;;;;4968881;29;20031;-78
2022/03/09 03:24:05;;;;;;;5.28;3.42;;;-0.80;75.00;;;;;;4967958;29;20087;-80
2022/03/09 03:26:34;;;;;;;8.50;3.67;;;-0.80;74.80;;;;;;4965846;29;20421;-79
2022/03/09 03:29:00;;;;;;;5.47;3.83;;;-0.80;74.70;;;;;;4964181;28;20042;-81
2022/03/09 03:31:28;;;;;;;6.90;3.78;;;-0.90;74.70;;;;;;4988404;28;20030;-79
2022/03/09 03:33:53;;;;;;;7.03;3.75;;;-0.90;74.60;;;;;;4993664;28;20019;-84
2022/03/09 03:36:19;;;;;;;9.75;4.68;;;-0.90;74.50;;;;;;4981731;28;20015;-84
2022/03/09 03:38:45;;;;;;;8.18;4.75;;;-0.80;74.20;;;;;;4959396;28;20094;-81
2022/03/09 03:41:11;;;;;;;10.05;4.57;;;-0.90;73.90;;;;;;4962015;28;20055;-80
2022/03/09 03:43:37;;;;;;;8.70;4.38;;;-0.90;73.90;;;;;;4988024;28;20031;-80
2022/03/09 03:46:03;;;;;;;9.18;4.88;;;-0.90;73.90;;;;;;4988632;28;20030;-80
2022/03/09 03:48:29;;;;;;;7.93;4.30;;;-0.90;73.90;;;;;;4970576;28;20033;-81
2022/03/09 03:50:55;;;;;;;8.15;4.53;;;-0.90;74.10;;;;;;4988183;28;20038;-82
2022/03/09 03:53:23;;;;;;;8.38;4.03;;;-1.00;74.30;;;;;;4970605;28;20049;-81
2022/03/09 03:55:49;;;;;;;7.57;4.03;;;-1.00;74.50;;;;;;4988225;28;20034;-79
2022/03/09 03:58:15;;;;;;;6.97;4.20;;;-1.00;74.80;;;;;;4985116;28;20033;-81
2022/03/09 04:00:44;;;;;;;7.38;4.53;;;-1.10;74.90;;;;;;4969377;28;20058;-83
2022/03/09 04:03:09;;;;;;;6.93;4.50;;;-1.10;75.10;;;;;;4980259;28;20110;-83
2022/03/09 04:05:35;;;;;;;7.78;4.15;;;-1.10;75.40;;;;;;4998291;28;20042;-83
2022/03/09 04:08:01;;;;;;;10.07;4.65;;;-1.10;75.50;;;;;;4988727;28;20020;-85
2022/03/09 04:10:27;;;;;;;10.05;5.00;;;-1.10;75.20;;;;;;4986859;28;20066;-85
2022/03/09 04:12:53;;;;;;;8.68;5.03;;;-1.20;75.00;;;;;;4962137;28;20047;-83
2022/03/09 04:15:19;;;;;;;8.52;4.82;;;-1.20;75.00;;;;;;4978646;28;20023;-84
2022/03/09 04:17:46;;;;;;;11.40;5.60;;;-1.20;74.90;;;;;;4962139;28;20015;-83
2022/03/09 04:20:13;;;;;;;9.55;5.38;;;-1.10;74.80;;;;;;4978997;28;20053;-85
2022/03/09 04:22:39;;;;;;;9.10;5.43;;;-1.10;74.50;;;;;;4978612;28;20035;-84
2022/03/09 04:25:06;;;;;;;8.90;5.05;;;-1.20;74.40;;;;;;4954451;29;20031;-80
2022/03/09 04:27:35;;;;;;;8.93;5.55;;;-1.20;74.70;;;;;;4971495;29;20019;-85
2022/03/09 04:30:01;;;;;;;9.60;5.15;;;-1.20;74.80;;;;;;4952849;29;20116;-81
2022/03/09 04:32:27;;;;;;;8.50;4.57;;;-1.20;74.70;;;;;;4950917;29;20042;-80
2022/03/09 04:34:53;;;;;;;10.18;4.47;;;-1.20;74.50;;;;;;4968686;29;20051;-80
2022/03/09 04:37:20;;;;;;;8.15;4.65;;;-1.20;74.40;;;;;;4967474;28;20030;-79
2022/03/09 04:39:46;;;;;;;9.57;4.85;;;-1.20;74.30;;;;;;4984726;28;20392;-80
2022/03/09 04:42:12;;;;;;;6.72;4.80;;;-1.20;74.30;;;;;;4986472;28;20031;-82
2022/03/09 04:44:38;;;;;;;6.93;4.32;;;-1.20;74.40;;;;;;4989911;28;20081;-80
2022/03/09 04:47:04;;;;;;;7.43;3.92;;;-1.30;74.40;;;;;;4989969;28;20034;-83
2022/03/09 04:49:30;;;;;;;7.45;4.43;;;-1.30;74.60;;;;;;4971433;28;20034;-81
2022/03/09 04:51:55;;;;;;;8.50;4.05;;;-1.30;74.70;;;;;;4994723;28;20043;-82
2022/03/09 04:54:21;;;;;;;8.10;4.53;;;-1.30;74.70;;;;;;4993524;28;20030;-82
2022/03/09 04:56:47;;;;;;;7.07;3.80;;;-1.30;74.90;;;;;;4973115;28;20046;-81
2022/03/09 04:59:13;;;;;;;6.53;4.28;;;-1.30;75.30;;;;;;4989785;28;20027;-81
2022/03/09 05:01:39;;;;;;;7.15;4.57;;;-1.40;75.30;;;;;;4993534;28;20019;-80
2022/03/09 05:04:04;;;;;;;7.80;4.60;;;-1.40;75.50;;;;;;4985411;28;20031;-80
2022/03/09 05:06:30;;;;;;;8.73;4.93;;;-1.30;75.90;;;;;;4982474;28;20114;-79
2022/03/09 05:08:56;;;;;;;7.80;4.53;;;-1.40;75.90;;;;;;4978335;28;20485;-79
2022/03/09 05:11:21;;;;;;;9.73;4.75;;;-1.40;75.90;;;;;;4963662;28;20043;-78
2022/03/09 05:13:47;;;;;;;9.80;5.32;;;-1.40;76.10;;;;;;4959881;29;20395;-79
2022/03/09 05:16:13;;;;;;;15.27;6.78;;;-1.40;76.10;;;;;;4963075;29;20032;-80
2022/03/09 05:18:40;;;;;;;11.57;6.07;;;-1.40;75.90;;;;;;4964369;28;20027;-80
2022/03/09 05:21:07;;;;;;;8.43;5.32;;;-1.40;75.40;;;;;;4968042;29;20031;-79
2022/03/09 05:23:33;;;;;;;8.85;5.13;;;-1.40;75.10;;;;;;4969671;29;20101;-80
2022/03/09 05:25:59;;;;;;;11.55;6.03;;;-1.40;75.10;;;;;;4958103;29;20023;-83
2022/03/09 05:28:24;;;;;;;9.85;5.63;;;-1.50;75.10;;;;;;4972111;29;20027;-82
2022/03/09 05:30:50;;;;;;;8.38;5.13;;;-1.50;75.00;;;;;;4971965;29;20028;-79
2022/03/09 05:33:16;;;;;;;8.60;5.20;;;-1.50;74.90;;;;;;4974594;28;20027;-80
2022/03/09 05:35:42;;;;;;;10.15;6.28;;;-1.50;74.90;;;;;;4977555;28;20038;-82
2022/03/09 05:38:08;;;;;;;8.27;4.55;;;-1.50;75.00;;;;;;4990646;23;20046;-79
2022/03/09 05:40:33;;;;;;;6.78;4.40;;;-1.50;75.20;;;;;;5008270;28;20027;-79
2022/03/09 05:42:59;;;;;;;10.05;4.88;;;-1.50;75.30;;;;;;5007686;28;20057;-79
2022/03/09 05:45:25;;;;;;;8.57;4.80;;;-1.50;75.40;;;;;;5009159;28;20026;-78
2022/03/09 05:47:51;;;;;;;8.35;5.03;;;-1.40;75.30;;;;;;5016719;28;20049;-80
2022/03/09 05:50:18;;;;;;;8.05;4.60;;;-1.40;75.00;;;;;;5024580;28;20049;-81
2022/03/09 05:52:44;;;;;;;8.38;4.63;;;-1.40;75.00;;;;;;5020990;28;20018;-81
2022/03/09 05:55:10;;;;;;;8.57;4.90;;;-1.40;74.90;;;;;;5039078;28;20393;-81
2022/03/09 05:57:36;;;;;;;6.95;4.22;;;-1.40;74.90;;;;;;5040239;28;20041;-85
2022/03/09 06:00:03;;;;;;;6.78;4.47;;;-1.40;75.00;;;;;;5041272;28;20029;-83
2022/03/09 06:02:28;;;;;;;9.55;5.15;;;-1.30;75.20;;;;;;5041487;28;20029;-83
2022/03/09 06:04:54;;;;;;;8.00;5.07;;;-1.30;75.30;;;;;;5041677;28;20109;-83
2022/03/09 06:07:20;;;;;;;9.57;5.63;;;-1.30;75.10;;;;;;5041211;28;20025;-82
2022/03/09 06:09:46;;;;;;;7.97;4.30;;;-1.30;74.70;;;;;;5033243;28;20033;-82
2022/03/09 06:12:11;;;;;;;11.23;5.60;;;-1.30;74.10;;;;;;5042307;28;20036;-83
2022/03/09 06:14:37;;;;;;;9.75;5.72;;;-1.40;73.90;;;;;;5042227;28;20026;-83
2022/03/09 06:17:03;;;;;;;8.73;5.15;;;-1.40;74.00;;;;;;5023234;28;20040;-83
2022/03/09 06:19:29;;;;;;;11.80;5.85;;;-1.40;74.10;;;;;;5041589;28;20370;-83
2022/03/09 06:21:54;;;;;;;9.77;5.72;;;-1.30;74.10;;;;;;5042793;28;20040;-83
2022/03/09 06:24:20;;;;;;;14.02;6.20;;;-1.30;73.80;;;;;;5025353;28;20033;-83
2022/03/09 06:26:46;;;;;;;15.18;5.93;;;-1.30;73.40;;;;;;5041129;28;20113;-82
2022/03/09 06:29:12;;;;;;;11.43;5.93;;;-1.30;73.50;;;;;;5042156;28;20474;-82
2022/03/09 06:31:44;;;;;;;10.23;5.53;;;-1.30;73.50;;;;;;5042692;28;20089;-82
2022/03/09 06:34:11;;;;;;;10.10;5.88;;;-1.20;73.70;;;;;;5041694;28;20030;-82
2022/03/09 06:36:37;;;;;;;9.32;5.03;;;-1.20;73.60;;;;;;5041443;28;20029;-82
2022/03/09 06:39:03;;;;;;;10.85;5.40;;;-1.10;73.60;;;;;;5040464;28;20472;-83
2022/03/09 06:41:29;;;;;;;11.30;5.13;;;-1.00;73.30;;;;;;5020862;28;20022;-81
2022/03/09 06:43:55;;;;;;;9.52;6.05;;;-0.90;73.00;;;;;;5003030;28;20034;-83
2022/03/09 06:46:22;;;;;;;8.43;5.35;;;-0.80;72.80;;;;;;5021365;28;20081;-81
2022/03/09 06:48:48;;;;;;;7.28;4.88;;;-0.70;72.50;;;;;;5002184;28;20037;-82
2022/03/09 06:51:14;;;;;;;6.57;4.22;;;-0.70;72.10;;;;;;5038203;28;20065;-82
2022/03/09 06:53:39;;;;;;;9.90;5.50;;;-0.50;71.90;;;;;;5040162;28;20029;-83
2022/03/09 06:56:05;;;;;;;9.27;5.20;;;-0.50;71.50;;;;;;5024568;28;20025;-83
2022/03/09 06:58:31;;;;;;;9.98;4.80;;;-0.30;71.10;;;;;;5040325;28;20060;-82
2022/03/09 07:00:57;;;;;;;8.85;4.90;;;-0.20;70.80;;;;;;5040809;28;20088;-83
2022/03/09 07:03:23;;;;;;;7.82;4.65;;;-0.10;70.40;;;;;;5040955;28;20089;-82
2022/03/09 07:05:55;;;;;;;9.55;5.38;;;0.00;70.00;;;;;;5041051;28;20036;-81
2022/03/09 07:08:21;;;;;;;10.18;5.20;;;0.10;69.30;;;;;;5020882;28;20041;-82
2022/03/09 07:10:47;;;;;;;10.10;5.50;;;0.20;69.00;;;;;;5026875;28;20045;-83
2022/03/09 07:13:13;;;;;;;35.88;11.55;;;0.40;68.70;;;;;;5040733;28;20098;-82
2022/03/09 07:15:38;;;;;;;20.17;10.02;;;0.50;86.90;;;;;;5023122;28;20022;-83
2022/03/09 07:18:04;;;;;;;17.95;10.23;;;0.40;95.10;;;;;;5043882;28;20079;-82
2022/03/09 07:20:30;;;;;;;16.67;8.98;;;0.20;98.50;;;;;;5044408;28;20166;-82
2022/03/09 07:23:05;;;;;;;14.70;9.25;;;0.00;99.90;;;;;;5042596;28;20033;-83
2022/03/09 07:25:30;;;;;;;16.75;9.93;;;-0.20;99.90;;;;;;5027784;28;20501;-82
2022/03/09 07:27:56;;;;;;;17.05;9.75;;;-0.30;99.90;;;;;;5026737;28;20109;-80
2022/03/09 07:30:25;;;;;;;18.08;10.15;;;-0.30;99.90;;;;;;5052587;28;20026;-83
2022/03/09 07:32:57;;;;;;;18.25;10.18;;;-0.20;99.90;;;;;;5042693;28;20036;-83
2022/03/09 07:35:23;;;;;;;14.82;9.13;;;-0.10;98.50;;;;;;5037602;28;20051;-81
2022/03/09 07:37:52;;;;;;;16.33;9.52;;;0.00;99.90;;;;;;5052413;28;20065;-83
2022/03/09 07:40:19;;;;;;;18.02;10.20;;;0.10;99.80;;;;;;5005938;28;20046;-85
2022/03/09 07:42:44;;;;;;;15.05;9.52;;;0.20;99.80;;;;;;5024915;28;20033;-83
2022/03/09 07:45:16;;;;;;;15.65;8.82;;;0.40;99.90;;;;;;5024862;28;20030;-81
2022/03/09 07:47:42;;;;;;;17.30;8.85;;;0.60;99.90;;;;;;5023080;28;20037;-83
2022/03/09 07:50:08;;;;;;;21.90;9.50;;;0.70;98.10;;;;;;5027223;28;20034;-83
2022/03/09 07:52:34;;;;;;;18.48;9.60;;;0.90;97.10;;;;;;5043120;28;20033;-83
2022/03/09 07:55:00;;;;;;;14.90;8.77;;;1.00;98.10;;;;;;5045676;28;20025;-83
2022/03/09 07:57:26;;;;;;;16.17;9.35;;;1.20;99.70;;;;;;5049024;28;20010;-80
2022/03/09 07:59:52;;;;;;;16.05;8.95;;;1.40;98.40;;;;;;5057847;28;20124;-81
2022/03/09 08:02:18;;;;;;;17.65;8.80;;;1.60;97.20;;;;;;5058386;28;20013;-81
2022/03/09 08:04:43;;;;;;;13.77;8.07;;;1.80;98.30;;;;;;5057778;28;20032;-81
2022/03/09 08:07:09;;;;;;;12.50;8.38;;;2.10;98.20;;;;;;5058141;28;20034;-80
2022/03/09 08:09:35;;;;;;;14.93;8.63;;;2.30;97.90;;;;;;5049619;28;20030;-80
2022/03/09 08:12:01;;;;;;;14.32;8.52;;;2.50;97.60;;;;;;5057705;28;20064;-81
2022/03/09 08:14:26;;;;;;;14.43;8.82;;;2.70;97.10;;;;;;5058146;28;20029;-81
2022/03/09 08:16:52;;;;;;;16.75;9.02;;;2.90;95.50;;;;;;5057794;28;20037;-80
2022/03/09 08:19:28;;;;;;;13.15;8.38;;;3.00;94.50;;;;;;5057385;28;20030;-81
2022/03/09 08:21:54;;;;;;;13.05;7.93;;;3.10;94.80;;;;;;5040093;28;20095;-80
2022/03/09 08:24:19;;;;;;;16.02;9.02;;;3.20;93.90;;;;;;5057670;28;20010;-81
2022/03/09 08:26:45;;;;;;;15.30;9.05;;;3.30;94.50;;;;;;5058429;28;20025;-81
2022/03/09 08:29:12;;;;;;;13.90;8.70;;;3.50;93.10;;;;;;5039421;28;20036;-82
2022/03/09 08:31:39;;;;;;;15.90;9.43;;;3.70;95.50;;;;;;5057956;28;20026;-80
2022/03/09 08:34:05;;;;;;;15.25;9.20;;;3.90;96.50;;;;;;5058067;28;20033;-81
2022/03/09 08:36:30;;;;;;;12.05;8.23;;;4.20;96.70;;;;;;5058316;28;20017;-80
2022/03/09 08:38:56;;;;;;;11.43;7.70;;;4.40;96.10;;;;;;5051501;28;20044;-83
2022/03/09 08:41:26;;;;;;;15.35;7.95;;;4.50;85.40;;;;;;5046903;28;20031;-83
2022/03/09 08:43:52;;;;;;;15.57;9.23;;;4.50;75.90;;;;;;5030772;28;20119;-82
2022/03/09 08:46:18;;;;;;;11.77;7.80;;;4.50;77.20;;;;;;5046451;28;20032;-83
2022/03/09 08:48:45;;;;;;;16.25;9.02;;;4.50;76.70;;;;;;5067032;28;20506;-83
2022/03/09 08:51:11;;;;;;;11.82;7.22;;;4.60;90.10;;;;;;5064080;28;20055;-83
2022/03/09 08:53:37;;;;;;;13.93;8.32;;;4.80;86.40;;;;;;5048547;28;20237;-83
2022/03/09 08:56:03;;;;;;;13.85;8.20;;;5.00;88.80;;;;;;5047825;28;20013;-83
2022/03/09 08:58:29;;;;;;;9.48;6.53;;;5.10;82.30;;;;;;5048787;28;20029;-84
2022/03/09 09:00:55;;;;;;;12.18;7.38;;;5.20;80.70;;;;;;5030024;28;20013;-80
2022/03/09 09:03:20;;;;;;;11.98;8.02;;;5.30;88.10;;;;;;5050398;28;20084;-83
2022/03/09 09:05:46;;;;;;;10.20;7.28;;;5.60;92.10;;;;;;5048881;28;20080;-82
2022/03/09 09:08:13;;;;;;;11.27;7.55;;;6.00;94.00;;;;;;5042702;28;20058;-81
2022/03/09 09:10:39;;;;;;;12.18;7.03;;;6.30;90.20;;;;;;5036334;28;20026;-84
2022/03/09 09:13:05;;;;;;;12.25;7.57;;;6.50;90.50;;;;;;5019106;28;20094;-83
2022/03/09 09:15:31;;;;;;;12.88;7.97;;;6.80;91.70;;;;;;5047849;28;20086;-83
2022/03/09 09:18:02;;;;;;;9.77;6.45;;;7.10;92.70;;;;;;5030148;28;20025;-82
2022/03/09 09:20:28;;;;;;;11.77;7.25;;;7.40;88.10;;;;;;5043373;28;20029;-82
2022/03/09 09:22:55;;;;;;;9.82;7.30;;;7.50;87.80;;;;;;5042098;28;20673;-83
2022/03/09 09:25:26;;;;;;;11.00;7.22;;;7.70;91.30;;;;;;5041976;28;20025;-82
2022/03/09 09:27:53;;;;;;;9.25;6.97;;;7.90;91.80;;;;;;5042442;28;20067;-83
2022/03/09 09:30:20;;;;;;;12.98;7.43;;;8.10;92.00;;;;;;5043238;28;20021;-82
2022/03/09 09:32:46;;;;;;;11.35;6.75;;;8.30;88.90;;;;;;5042679;28;20028;-82
2022/03/09 09:35:12;;;;;;;9.88;6.65;;;8.40;90.30;;;;;;5042832;28;20047;-83
2022/03/09 09:37:38;;;;;;;10.90;7.05;;;8.50;89.00;;;;;;5021516;28;20037;-83
2022/03/09 09:40:08;;;;;;;9.02;7.50;;;8.70;89.30;;;;;;5034405;28;20017;-83
2022/03/09 09:42:34;;;;;;;8.80;6.40;;;8.60;82.00;;;;;;5031316;28;20040;-83
2022/03/09 09:45:03;;;;;;;8.80;6.80;;;8.70;84.60;;;;;;5042708;28;20021;-83
2022/03/09 09:47:33;;;;;;;8.68;6.55;;;8.80;85.90;;;;;;5041026;28;20032;-81
2022/03/09 09:49:59;;;;;;;9.07;6.68;;;9.10;85.10;;;;;;5042623;28;20032;-83
2022/03/09 09:52:27;;;;;;;9.55;6.57;;;9.40;87.00;;;;;;5023646;28;20079;-82
2022/03/09 09:54:54;;;;;;;11.63;7.07;;;9.40;59.70;;;;;;5041344;28;20028;-81
2022/03/09 09:57:21;;;;;;;9.93;6.72;;;9.40;60.70;;;;;;5041380;28;20017;-82
2022/03/09 09:59:47;;;;;;;12.07;7.15;;;9.20;61.70;;;;;;5042665;28;20030;-82
2022/03/09 10:02:13;;;;;;;9.85;6.50;;;9.30;69.40;;;;;;5042906;28;20049;-83
2022/03/09 10:04:42;;;;;;;9.35;6.85;;;9.50;77.70;;;;;;5043134;28;20029;-83
2022/03/09 10:07:08;;;;;;;13.48;7.03;;;9.80;76.50;;;;;;5043603;28;20022;-83
2022/03/09 10:09:39;;;;;;;11.68;7.63;;;9.90;67.50;;;;;;5047233;28;20479;-83
2022/03/09 10:12:06;;;;;;;9.20;6.78;;;10.10;77.00;;;;;;5041570;28;20505;-83
2022/03/09 10:14:42;;;;;;;9.50;6.47;;;10.20;72.00;;;;;;5023255;28;20037;-83
2022/03/09 10:17:25;;;;;;;10.00;6.55;;;10.00;68.80;;;;;;5004180;28;20033;-83
2022/03/09 10:19:54;;;;;;;8.55;5.57;;;9.90;67.40;;;;;;5028692;28;20044;-81
2022/03/09 10:22:35;;;;;;;7.68;5.88;;;10.00;70.20;;;;;;5013052;28;20029;-83
2022/03/09 10:25:25;;;;;;;7.68;5.90;;;10.20;71.50;;;;;;5031079;28;20030;-82
2022/03/09 10:27:55;;;;;;;6.90;5.38;;;10.30;72.60;;;;;;5029355;28;20065;-82
2022/03/09 10:30:23;;;;;;;7.68;5.68;;;10.50;76.60;;;;;;5028173;28;20022;-83
2022/03/09 10:32:59;;;;;;;7.30;5.30;;;10.70;77.50;;;;;;5010860;28;20474;-82
2022/03/09 10:35:30;;;;;;;6.80;4.38;;;10.80;67.40;;;;;;5029123;28;20049;-83
2022/03/09 10:38:05;;;;;;;9.40;5.75;;;10.70;58.50;;;;;;5034831;28;20033;-82
2022/03/09 10:40:34;;;;;;;8.38;5.20;;;10.70;51.70;;;;;;5043205;28;20083;-83
2022/03/09 10:43:25;;;;;;;7.45;5.10;;;10.60;44.80;;;;;;5048542;28;20029;-83
2022/03/09 10:46:05;;;;;;;7.63;5.70;;;10.60;43.50;;;;;;5045620;28;20111;-83
2022/03/09 10:48:54;;;;;;;5.20;4.35;;;10.70;41.90;;;;;;5043867;28;20069;-84
2022/03/09 10:51:32;;;;;;;5.57;4.00;;;10.90;40.70;;;;;;5028295;28;20328;-83
2022/03/09 10:54:22;;;;;;;6.30;4.68;;;11.00;38.40;;;;;;5047415;28;20433;-82
2022/03/09 10:57:08;;;;;;;5.82;4.03;;;11.10;38.00;;;;;;5029655;28;20108;-83
2022/03/09 10:59:49;;;;;;;5.63;4.07;;;11.30;37.70;;;;;;5029239;28;20106;-82
2022/03/09 11:02:19;;;;;;;5.53;4.28;;;11.60;37.00;;;;;;5046294;28;20026;-83
2022/03/09 11:05:09;;;;;;;5.03;3.97;;;11.80;36.20;;;;;;5030090;28;20049;-81
2022/03/09 11:07:36;;;;;;;4.85;4.22;;;12.00;35.30;;;;;;5032228;28;20044;-82
2022/03/09 11:10:03;;;;;;;4.93;3.78;;;12.00;35.10;;;;;;5050276;28;20116;-81
2022/03/09 11:12:29;;;;;;;9.13;4.97;;;12.00;35.30;;;;;;5058940;28;20030;-82
2022/03/09 11:14:55;;;;;;;4.95;4.28;;;11.80;34.90;;;;;;5034109;28;20033;-82
2022/03/09 11:17:25;;;;;;;7.30;4.75;;;11.60;33.80;;;;;;5039550;28;20710;-80
2022/03/09 11:19:51;;;;;;;8.35;4.55;;;11.60;34.20;;;;;;5049830;28;20482;-82
2022/03/09 11:22:17;;;;;;;5.20;4.05;;;11.50;33.80;;;;;;5055493;28;20052;-80
2022/03/09 11:24:43;;;;;;;5.78;4.40;;;11.40;33.40;;;;;;5050213;28;20026;-81
2022/03/09 11:27:11;;;;;;;6.43;4.47;;;11.40;33.20;;;;;;5038803;28;20022;-81
2022/03/09 11:29:40;;;;;;;6.93;3.65;;;11.60;33.60;;;;;;5033493;28;20140;-83
2022/03/09 11:32:14;;;;;;;4.25;3.50;;;11.70;33.10;;;;;;5053079;28;20040;-82
2022/03/09 11:34:44;;;;;;;5.00;3.70;;;11.70;32.80;;;;;;5037729;28;20033;-80
2022/03/09 11:37:15;;;;;;;5.15;3.70;;;11.90;32.90;;;;;;5050898;28;20170;-83
2022/03/09 11:40:20;;;;;;;6.47;4.30;;;12.10;33.30;;;;;;5051455;23;20057;-83
2022/03/09 11:43:23;;;;;;;9.18;3.63;;;12.10;32.40;;;;;;5032513;28;20056;-84
2022/03/09 11:46:36;;;;;;;4.75;3.97;;;12.00;32.40;;;;;;5007891;28;20201;-85
2022/03/09 11:49:23;;;;;;;9.40;4.75;;;12.10;33.00;;;;;;4954264;29;20047;-84
2022/03/09 11:52:35;;;;;;;7.05;4.55;;;12.00;32.20;;;;;;4952450;29;20489;-84
2022/03/09 11:59:10;;;;;;;6.97;4.47;;;11.70;33.30;;;;;;4993304;28;20122;-85
2022/03/09 12:01:57;;;;;;;6.53;4.88;;;11.60;33.40;;;;;;5018901;28;20034;-84
2022/03/09 12:04:51;;;;;;;7.00;4.40;;;11.70;33.60;;;;;;5007896;28;20026;-84
2022/03/09 12:07:34;;;;;;;6.45;4.40;;;12.00;33.60;;;;;;5011171;28;20032;-84
2022/03/09 12:10:05;;;;;;;5.70;4.35;;;12.30;33.10;;;;;;5039424;28;20037;-85
2022/03/09 12:12:33;;;;;;;7.78;4.40;;;12.20;32.60;;;;;;5024679;28;20029;-84
2022/03/09 12:15:03;;;;;;;8.15;5.20;;;11.90;33.40;;;;;;5008293;28;20089;-84
2022/03/09 12:17:39;;;;;;;5.72;4.55;;;11.90;33.40;;;;;;5009739;28;20026;-85
2022/03/09 12:20:31;;;;;;;7.65;4.90;;;11.90;34.00;;;;;;5024627;28;20463;-85
2022/03/09 12:23:15;;;;;;;8.77;4.95;;;11.70;33.40;;;;;;5000709;28;20030;-85
2022/03/09 12:25:41;;;;;;;6.55;4.32;;;11.70;33.80;;;;;;4988839;28;20038;-85
2022/03/09 12:28:29;;;;;;;10.25;4.72;;;11.90;34.20;;;;;;5007309;28;20104;-85
2022/03/09 12:31:34;;;;;;;5.40;4.40;;;12.00;33.10;;;;;;5005082;28;20055;-85
2022/03/09 12:34:06;;;;;;;8.05;4.68;;;12.00;33.30;;;;;;5007844;28;20434;-85
2022/03/09 12:36:32;;;;;;;6.90;4.22;;;12.20;32.70;;;;;;5006451;28;20026;-85
2022/03/09 12:39:00;;;;;;;4.45;3.75;;;12.20;33.30;;;;;;5038244;28;20117;-84
2022/03/09 12:41:39;;;;;;;5.43;4.05;;;12.50;33.50;;;;;;5023710;28;20474;-84
2022/03/09 12:44:07;;;;;;;5.28;3.90;;;12.70;32.80;;;;;;4989377;28;20117;-84
2022/03/09 12:46:35;;;;;;;4.68;3.90;;;12.70;31.60;;;;;;4989888;28;20058;-84
2022/03/09 12:49:05;;;;;;;6.05;3.50;;;12.60;30.70;;;;;;5006971;28;20026;-84
2022/03/09 12:51:32;;;;;;;6.93;4.55;;;12.60;31.20;;;;;;4989230;28;20050;-84
2022/03/09 12:53:59;;;;;;;11.48;4.30;;;12.50;31.70;;;;;;4990237;28;20042;-84
2022/03/09 12:56:25;;;;;;;7.28;4.43;;;12.50;32.60;;;;;;5007962;28;20030;-84
2022/03/09 12:58:53;;;;;;;8.07;4.60;;;12.40;32.70;;;;;;5007292;28;20153;-84